createdAt,value
2022-10-02T00:09:00.262Z,19.3
2022-10-02T00:19:07.894Z,19.1
2022-10-02T00:29:15.948Z,18.9
2022-10-02T00:39:24.744Z,18.9
2022-10-02T00:49:31.386Z,19
2022-10-02T00:59:38.082Z,19.2
2022-10-02T01:09:44.713Z,19
2022-10-02T01:19:52.865Z,18.8
2022-10-02T01:29:59.548Z,19
2022-10-02T01:40:06.186Z,19
2022-10-02T01:50:12.909Z,18.7
2022-10-02T02:00:19.548Z,18.6
2022-10-02T02:10:26.194Z,18.6
2022-10-02T02:20:32.952Z,18.6
2022-10-02T02:30:39.590Z,18.5
2022-10-02T02:40:47.531Z,18.4
2022-10-02T02:50:54.205Z,18.3
2022-10-02T03:01:00.887Z,18.3
2022-10-02T03:11:07.448Z,18.3
2022-10-02T03:21:14.146Z,18.2
2022-10-02T03:31:20.773Z,18.2
2022-10-02T03:41:27.428Z,18
2022-10-02T03:51:34.117Z,17.9
2022-10-02T04:01:42.675Z,17.7
2022-10-02T04:11:48.356Z,17.6
2022-10-02T04:21:55.110Z,17.3
2022-10-02T04:32:01.679Z,16.9
2022-10-02T04:42:08.301Z,16.9
2022-10-02T04:52:14.974Z,16.9
2022-10-02T05:02:21.705Z,17.1
2022-10-02T05:12:28.270Z,16.9
2022-10-02T05:22:35.189Z,16.8
2022-10-02T05:32:42.292Z,16.9
2022-10-02T05:42:50.438Z,17.2
2022-10-02T05:52:57.548Z,17
2022-10-02T06:03:04.336Z,17.2
2022-10-02T06:13:12.083Z,17.1
2022-10-02T06:23:19.079Z,16.9
2022-10-02T06:33:26.770Z,16.8
2022-10-02T06:43:35.024Z,16.8
2022-10-02T06:53:41.664Z,17.1
2022-10-02T07:03:48.351Z,17.5
2022-10-02T07:13:55.956Z,17.7
2022-10-02T07:24:03.623Z,17.7
2022-10-02T07:34:04.285Z,18
2022-10-02T07:44:10.967Z,18.1
2022-10-02T07:54:18.759Z,19.4
2022-10-02T08:04:20.047Z,21.6
2022-10-02T08:14:26.161Z,22.9
2022-10-02T08:24:33.194Z,23.8
2022-10-02T08:34:41.234Z,24.3
2022-10-02T08:44:47.979Z,24.7
2022-10-02T08:54:54.659Z,25.1
2022-10-02T09:05:01.387Z,25.5
2022-10-02T09:15:09.169Z,26.3
2022-10-02T09:25:17.154Z,26.7
2022-10-02T09:35:26.758Z,27.4
2022-10-02T09:45:27.678Z,28.2
2022-10-02T09:55:37.289Z,27.9
2022-10-02T10:05:35.998Z,28.6
2022-10-02T10:15:42.775Z,28.3
2022-10-02T10:45:54.872Z,28.8
2022-10-02T10:56:01.623Z,28.7
2022-10-02T11:06:08.256Z,28.7
2022-10-02T11:16:19.789Z,28.3
2022-10-02T11:26:18.129Z,27.9
2022-10-02T11:36:25.985Z,27.5
2022-10-02T12:16:40.502Z,27.2
2022-10-02T12:36:51.680Z,27.9
2022-10-02T12:47:02.225Z,28
2022-10-02T12:57:08.897Z,28.6
2022-10-02T13:07:15.602Z,28.7
2022-10-02T13:17:29.004Z,29.1
2022-10-02T13:27:29.443Z,29.2
2022-10-02T13:37:36.659Z,28.9
2022-10-02T13:47:35.901Z,29.6
2022-10-02T13:57:43.721Z,29.4
2022-10-02T14:07:53.575Z,29.3
2022-10-02T14:17:56.236Z,29
2022-10-02T14:27:53.808Z,28.8
2022-10-02T14:37:54.819Z,28.2
2022-10-02T14:47:55.613Z,28
2022-10-02T14:58:01.189Z,28.2
2022-10-02T15:07:58.603Z,28.1
2022-10-02T15:18:09.349Z,28
2022-10-02T15:28:31.762Z,28.4
2022-10-02T15:38:19.230Z,28.2
2022-10-02T15:48:27.816Z,28.4
2022-10-02T15:58:35.481Z,28.4
2022-10-02T16:08:44.025Z,27.9
2022-10-02T16:18:51.846Z,27.9
2022-10-02T16:29:00.378Z,27.9
2022-10-02T16:39:07.802Z,27.8
2022-10-02T16:49:15.354Z,27.4
2022-10-02T16:59:22.838Z,26.9
2022-10-02T17:09:30.398Z,26.8
2022-10-02T17:19:38.000Z,26.5
2022-10-02T17:29:45.506Z,26.3
2022-10-02T17:39:52.961Z,26.1
2022-10-02T17:50:00.457Z,25.7
2022-10-02T18:00:08.041Z,25.5
2022-10-02T18:10:15.584Z,25.5
2022-10-02T18:20:24.066Z,25.2
2022-10-02T18:30:31.465Z,24.9
2022-10-02T18:40:38.987Z,24.9
2022-10-02T18:50:47.456Z,24.8
2022-10-02T19:00:54.975Z,24.7
2022-10-02T19:11:04.855Z,24.6
2022-10-02T19:21:13.450Z,24.5
2022-10-02T19:31:16.291Z,24.3
2022-10-02T19:41:23.766Z,24.1
2022-10-02T19:51:30.901Z,24.1
2022-10-02T20:01:38.536Z,24.1
2022-10-02T20:11:46.951Z,23.9
2022-10-02T20:21:54.469Z,23.7
2022-10-02T20:32:01.924Z,23.5
2022-10-02T20:42:09.339Z,23.3
2022-10-02T20:52:16.848Z,23.2
2022-10-02T21:02:24.511Z,23.2
2022-10-02T21:12:32.001Z,23
2022-10-02T21:22:40.545Z,22.8
2022-10-02T21:32:49.445Z,22.8
2022-10-02T21:42:55.038Z,22.5
2022-10-02T21:52:53.873Z,22.5
2022-10-02T22:03:02.299Z,22.3
2022-10-02T22:13:09.805Z,22.3
2022-10-02T22:23:17.210Z,22.1
2022-10-02T22:33:24.682Z,21.5
2022-10-02T22:43:33.388Z,21.3
2022-10-02T22:53:40.876Z,21.4
2022-10-02T23:03:48.496Z,21.3
2022-10-02T23:13:55.984Z,21
2022-10-02T23:24:03.394Z,20.8
2022-10-02T23:34:10.748Z,20.6
2022-10-02T23:44:18.128Z,20.6
2022-10-02T23:54:25.577Z,20.3
